createdAt,value
2023-02-28T00:00:15.208Z,2.40
2023-02-28T00:02:32.458Z,2.47
2023-02-28T00:04:50.671Z,2.85
2023-02-28T00:07:07.648Z,2.20
2023-02-28T00:09:26.279Z,2.45
2023-02-28T00:11:43.177Z,2.53
2023-02-28T00:14:00.253Z,2.50
2023-02-28T00:16:17.215Z,2.67
2023-02-28T00:18:34.177Z,2.20
2023-02-28T00:20:51.542Z,2.40
2023-02-28T00:23:08.696Z,2.28
2023-02-28T00:25:26.077Z,2.42
2023-02-28T00:27:43.729Z,2.50
2023-02-28T00:30:00.802Z,2.70
2023-02-28T00:32:17.920Z,2.47
2023-02-28T00:34:35.204Z,2.35
2023-02-28T00:36:52.232Z,2.67
2023-02-28T00:39:09.120Z,2.70
2023-02-28T00:41:26.408Z,2.30
2023-02-28T00:43:43.590Z,2.42
2023-02-28T00:46:00.734Z,2.75
2023-02-28T00:48:18.252Z,2.67
2023-02-28T00:50:36.586Z,2.50
2023-02-28T00:52:53.918Z,2.63
2023-02-28T00:55:11.208Z,2.55
2023-02-28T00:57:28.285Z,2.67
2023-02-28T00:59:45.365Z,2.75
2023-02-28T01:02:02.658Z,2.88
2023-02-28T01:04:20.146Z,2.72
2023-02-28T01:06:37.405Z,2.70
2023-02-28T01:08:54.736Z,2.70
2023-02-28T01:11:11.691Z,2.80
2023-02-28T01:13:28.703Z,2.80
2023-02-28T01:15:45.781Z,2.88
2023-02-28T01:18:02.883Z,2.60
2023-02-28T01:20:20.542Z,2.90
2023-02-28T01:22:37.862Z,2.70
2023-02-28T01:24:54.928Z,2.75
2023-02-28T01:27:11.959Z,3.10
2023-02-28T01:29:28.936Z,2.60
2023-02-28T01:31:46.556Z,3.03
2023-02-28T01:34:03.871Z,3.20
2023-02-28T01:36:21.234Z,3.03
2023-02-28T01:38:38.268Z,3.17
2023-02-28T01:40:57.712Z,3.05
2023-02-28T01:43:15.510Z,2.75
2023-02-28T01:45:33.002Z,2.92
2023-02-28T01:47:51.224Z,2.65
2023-02-28T01:50:08.209Z,2.90
2023-02-28T01:52:25.184Z,3.22
2023-02-28T01:54:42.285Z,3.10
2023-02-28T01:57:00.243Z,2.92
2023-02-28T01:59:17.536Z,2.75
2023-02-28T02:01:34.761Z,3.13
2023-02-28T02:03:51.796Z,3.47
2023-02-28T02:06:08.838Z,3.15
2023-02-28T02:08:25.880Z,2.97
2023-02-28T02:10:43.235Z,3.15
2023-02-28T02:13:00.311Z,3.17
2023-02-28T02:15:17.532Z,3.28
2023-02-28T02:17:34.555Z,3.38
2023-02-28T02:19:52.528Z,3.22
2023-02-28T02:22:09.803Z,3.33
2023-02-28T02:24:27.250Z,3.20
2023-02-28T02:26:45.553Z,3.17
2023-02-28T02:29:02.893Z,3.40
2023-02-28T02:31:20.985Z,3.28
2023-02-28T02:33:38.097Z,3.65
2023-02-28T02:35:55.449Z,3.30
2023-02-28T02:38:12.598Z,3.30
2023-02-28T02:40:29.902Z,3.60
2023-02-28T02:42:47.153Z,3.60
2023-02-28T02:45:05.076Z,3.60
2023-02-28T02:47:22.194Z,3.95
2023-02-28T02:49:40.320Z,4.05
2023-02-28T02:51:57.358Z,3.65
2023-02-28T02:54:15.622Z,4.03
2023-02-28T02:56:32.936Z,4.50
2023-02-28T02:58:49.986Z,4.60
2023-02-28T03:01:07.301Z,4.72
2023-02-28T03:03:25.388Z,5.22
2023-02-28T03:05:42.648Z,5.22
2023-02-28T03:07:59.729Z,5.30
2023-02-28T03:10:16.795Z,4.88
2023-02-28T03:12:34.743Z,4.57
2023-02-28T03:14:51.744Z,5.30
2023-02-28T03:17:09.838Z,5.00
2023-02-28T03:19:27.107Z,5.13
2023-02-28T03:21:46.160Z,5.03
2023-02-28T03:24:03.197Z,4.65
2023-02-28T03:26:20.579Z,4.50
2023-02-28T03:28:37.846Z,4.15
2023-02-28T03:30:55.136Z,4.07
2023-02-28T03:33:12.178Z,4.40
2023-02-28T03:35:30.545Z,4.25
2023-02-28T03:37:47.801Z,4.00
2023-02-28T03:40:04.940Z,3.85
2023-02-28T03:42:22.291Z,4.13
2023-02-28T03:44:39.263Z,3.92
2023-02-28T03:46:56.211Z,4.55
2023-02-28T03:49:13.253Z,4.35
2023-02-28T03:51:31.574Z,4.78
2023-02-28T03:53:48.946Z,5.13
2023-02-28T03:56:06.334Z,4.93
2023-02-28T03:58:24.726Z,5.55
2023-02-28T04:00:42.074Z,6.05
2023-02-28T04:02:59.431Z,5.20
2023-02-28T04:05:16.799Z,5.47
2023-02-28T04:07:33.900Z,5.38
2023-02-28T04:09:51.149Z,5.55
2023-02-28T04:12:08.524Z,5.22
2023-02-28T04:14:25.493Z,5.75
2023-02-28T04:16:43.577Z,4.70
2023-02-28T04:19:00.630Z,4.88
2023-02-28T04:21:17.795Z,4.57
2023-02-28T04:23:34.749Z,5.00
2023-02-28T04:25:52.173Z,4.80
2023-02-28T04:28:10.014Z,4.75
2023-02-28T04:30:27.338Z,4.57
2023-02-28T04:32:44.694Z,4.07
2023-02-28T04:35:01.701Z,4.30
2023-02-28T04:37:19.019Z,4.03
2023-02-28T04:39:37.121Z,3.97
2023-02-28T04:41:54.175Z,3.72
2023-02-28T04:44:11.453Z,4.03
2023-02-28T04:46:28.377Z,4.10
2023-02-28T04:48:45.325Z,3.70
2023-02-28T04:51:03.475Z,3.47
2023-02-28T04:53:20.834Z,3.60
2023-02-28T04:55:38.139Z,3.92
2023-02-28T04:57:55.264Z,3.70
2023-02-28T05:00:13.248Z,3.70
2023-02-28T05:02:30.601Z,3.70
2023-02-28T05:04:47.871Z,3.72
2023-02-28T05:07:05.265Z,3.42
2023-02-28T05:09:22.221Z,3.28
2023-02-28T05:11:39.543Z,3.78
2023-02-28T05:13:56.640Z,3.63
2023-02-28T05:16:13.986Z,3.90
2023-02-28T05:18:31.174Z,3.42
2023-02-28T05:20:48.237Z,3.33
2023-02-28T05:23:05.256Z,3.60
2023-02-28T05:25:22.307Z,3.30
2023-02-28T05:27:39.389Z,3.88
2023-02-28T05:29:56.638Z,3.80
2023-02-28T05:32:13.702Z,3.85
2023-02-28T05:34:31.039Z,3.80
2023-02-28T05:36:48.355Z,3.70
2023-02-28T05:39:05.762Z,3.28
2023-02-28T05:41:23.048Z,4.00
2023-02-28T05:43:40.347Z,3.80
2023-02-28T05:45:57.330Z,3.97
2023-02-28T05:48:14.418Z,4.07
2023-02-28T05:50:31.771Z,4.00
2023-02-28T05:52:49.165Z,4.13
2023-02-28T05:55:08.555Z,4.05
2023-02-28T05:57:25.867Z,3.63
2023-02-28T05:59:42.874Z,3.65
2023-02-28T06:02:00.275Z,3.72
2023-02-28T06:04:30.636Z,4.05
2023-02-28T06:06:48.605Z,4.75
2023-02-28T06:09:05.686Z,4.47
2023-02-28T06:11:22.764Z,4.65
2023-02-28T06:13:39.840Z,4.22
2023-02-28T06:15:57.113Z,4.45
2023-02-28T06:18:14.419Z,4.65
2023-02-28T06:20:31.502Z,6.32
2023-02-28T06:22:48.553Z,15.23
2023-02-28T06:25:05.854Z,22.42
2023-02-28T06:27:23.225Z,19.17
2023-02-28T06:29:40.275Z,15.70
2023-02-28T06:31:57.410Z,10.90
2023-02-28T06:34:14.674Z,14.25
2023-02-28T06:36:31.917Z,21.05
2023-02-28T06:38:49.297Z,23.85
2023-02-28T06:41:06.322Z,25.80
2023-02-28T06:43:24.566Z,19.50
2023-02-28T06:45:41.789Z,17.33
2023-02-28T06:47:59.194Z,16.17
2023-02-28T06:50:16.219Z,13.07
2023-02-28T06:52:33.296Z,10.57
2023-02-28T06:54:50.638Z,10.95
2023-02-28T06:57:07.702Z,9.10
2023-02-28T06:59:24.863Z,8.88
2023-02-28T07:01:41.946Z,8.55
2023-02-28T07:03:59.208Z,8.10
2023-02-28T07:06:16.303Z,8.15
2023-02-28T07:08:34.294Z,7.85
2023-02-28T07:10:51.280Z,6.25
2023-02-28T07:13:08.577Z,6.78
2023-02-28T07:15:26.540Z,6.45
2023-02-28T07:17:44.795Z,6.05
2023-02-28T07:20:02.024Z,6.13
2023-02-28T07:22:19.270Z,5.43
2023-02-28T07:24:36.337Z,6.22
2023-02-28T07:26:53.575Z,5.90
2023-02-28T07:29:10.668Z,6.00
2023-02-28T07:31:28.014Z,5.80
2023-02-28T07:33:45.573Z,5.40
2023-02-28T07:36:03.621Z,5.78
2023-02-28T07:38:20.897Z,5.85
2023-02-28T07:40:37.950Z,6.00
2023-02-28T07:42:55.315Z,6.60
2023-02-28T07:45:12.344Z,7.93
2023-02-28T07:47:29.594Z,8.10
2023-02-28T07:49:46.600Z,10.95
2023-02-28T07:52:03.872Z,13.23
2023-02-28T07:54:22.162Z,12.40
2023-02-28T07:56:39.485Z,12.13
2023-02-28T07:58:57.401Z,11.32
2023-02-28T08:01:14.432Z,9.88
2023-02-28T08:03:31.486Z,9.15
2023-02-28T08:05:48.810Z,8.10
2023-02-28T08:08:06.179Z,13.25
2023-02-28T08:10:23.533Z,14.02
2023-02-28T08:12:41.426Z,15.30
2023-02-28T08:14:58.731Z,13.00
2023-02-28T08:17:15.799Z,13.52
2023-02-28T08:19:32.912Z,11.60
2023-02-28T08:21:49.934Z,11.70
2023-02-28T08:24:08.253Z,11.55
2023-02-28T08:26:25.314Z,9.13
2023-02-28T08:28:42.611Z,8.35
2023-02-28T08:30:59.593Z,7.68
2023-02-28T08:33:17.481Z,4.95
2023-02-28T08:35:35.735Z,4.03
2023-02-28T08:37:53.100Z,3.90
2023-02-28T08:40:10.341Z,3.65
2023-02-28T08:42:27.359Z,3.38
2023-02-28T08:44:44.258Z,3.30
2023-02-28T08:47:01.236Z,3.90
2023-02-28T08:49:18.224Z,3.90
2023-02-28T08:51:35.567Z,3.80
2023-02-28T08:53:52.411Z,3.40
2023-02-28T08:56:09.708Z,3.85
2023-02-28T08:58:27.986Z,3.60
2023-02-28T09:00:45.255Z,3.70
2023-02-28T09:03:02.290Z,3.20
2023-02-28T09:05:19.370Z,3.47
2023-02-28T09:07:36.554Z,4.05
2023-02-28T09:09:53.902Z,4.03
2023-02-28T09:12:11.169Z,3.67
2023-02-28T09:14:28.272Z,4.22
2023-02-28T09:16:45.616Z,4.28
2023-02-28T09:19:03.590Z,3.72
2023-02-28T09:21:20.661Z,4.00
2023-02-28T09:23:37.944Z,4.03
2023-02-28T09:25:54.928Z,4.03
2023-02-28T09:28:12.209Z,4.10
2023-02-28T09:30:29.193Z,4.00
2023-02-28T09:32:46.232Z,4.13
2023-02-28T09:35:04.263Z,4.80
2023-02-28T09:37:21.292Z,4.45
2023-02-28T09:39:38.489Z,4.30
2023-02-28T09:41:55.775Z,4.60
2023-02-28T09:44:12.778Z,4.82
2023-02-28T09:46:30.081Z,5.10
2023-02-28T09:48:46.992Z,5.18
2023-02-28T09:51:04.222Z,5.97
2023-02-28T09:53:21.559Z,5.25
2023-02-28T09:55:46.643Z,5.45
2023-02-28T09:58:04.203Z,5.60
2023-02-28T10:00:21.642Z,4.93
2023-02-28T10:02:38.688Z,5.63
2023-02-28T10:04:55.810Z,5.45
2023-02-28T10:07:14.112Z,5.70
2023-02-28T10:09:31.151Z,5.93
2023-02-28T10:14:05.148Z,5.40
2023-02-28T10:16:22.158Z,5.55
2023-02-28T10:18:39.209Z,5.38
2023-02-28T10:20:56.241Z,5.68
2023-02-28T10:23:13.253Z,5.00
2023-02-28T10:25:30.313Z,5.53
2023-02-28T10:27:47.289Z,5.30
2023-02-28T10:30:05.303Z,5.03
2023-02-28T10:32:22.522Z,5.30
2023-02-28T10:34:39.806Z,5.30
2023-02-28T10:36:57.059Z,5.45
2023-02-28T10:39:14.295Z,5.00
2023-02-28T10:41:31.568Z,5.03
2023-02-28T10:43:48.611Z,5.57
2023-02-28T10:46:05.731Z,5.50
2023-02-28T10:48:22.774Z,5.45
2023-02-28T10:50:40.023Z,5.85
2023-02-28T10:52:57.311Z,5.55
2023-02-28T10:55:14.685Z,5.60
2023-02-28T10:57:31.986Z,4.97
2023-02-28T10:59:49.064Z,4.93
2023-02-28T11:02:08.441Z,4.65
2023-02-28T11:04:25.603Z,4.90
2023-02-28T11:06:42.740Z,5.05
2023-02-28T11:09:00.106Z,4.82
2023-02-28T11:11:17.133Z,4.97
2023-02-28T11:13:34.068Z,4.70
2023-02-28T11:15:51.390Z,5.00
2023-02-28T11:18:08.490Z,5.30
2023-02-28T11:20:25.454Z,6.38
2023-02-28T11:22:42.798Z,4.97
2023-02-28T11:25:00.106Z,5.13
2023-02-28T11:27:17.149Z,5.03
2023-02-28T11:29:34.413Z,4.75
2023-02-28T11:31:52.445Z,4.60
2023-02-28T11:34:09.522Z,4.80
2023-02-28T11:36:26.472Z,4.82
2023-02-28T11:38:43.494Z,4.60
2023-02-28T11:41:01.831Z,8.55
2023-02-28T11:43:18.800Z,5.22
2023-02-28T11:45:36.057Z,5.20
2023-02-28T11:47:53.023Z,4.85
2023-02-28T11:50:11.262Z,5.57
2023-02-28T11:52:46.849Z,5.15
2023-02-28T11:55:03.786Z,5.32
2023-02-28T11:57:22.095Z,5.47
2023-02-28T11:59:39.087Z,5.40
2023-02-28T12:01:56.385Z,5.63
2023-02-28T12:04:13.654Z,5.25
2023-02-28T12:06:30.676Z,5.43
2023-02-28T12:08:48.990Z,4.82
2023-02-28T12:11:05.996Z,5.28
2023-02-28T12:13:22.970Z,5.22
2023-02-28T12:15:39.869Z,5.13
2023-02-28T12:17:56.980Z,5.50
2023-02-28T12:20:14.160Z,5.90
2023-02-28T12:22:31.225Z,5.55
2023-02-28T12:24:48.300Z,6.10
2023-02-28T12:27:05.586Z,5.30
2023-02-28T12:29:22.919Z,5.53
2023-02-28T12:31:40.044Z,5.65
2023-02-28T12:33:57.352Z,5.75
2023-02-28T12:36:15.675Z,5.50
2023-02-28T12:38:33.005Z,4.97
2023-02-28T12:40:50.051Z,5.15
2023-02-28T12:43:07.280Z,5.30
2023-02-28T12:45:25.335Z,5.63
2023-02-28T12:47:43.338Z,5.50
2023-02-28T12:50:00.644Z,5.70
2023-02-28T12:52:17.702Z,5.80
2023-02-28T12:54:34.656Z,5.60
2023-02-28T12:56:51.701Z,5.90
2023-02-28T12:59:08.899Z,5.65
2023-02-28T13:01:27.213Z,5.82
2023-02-28T13:03:44.498Z,5.90
2023-02-28T13:06:01.496Z,5.65
2023-02-28T13:08:18.563Z,5.63
2023-02-28T13:10:35.558Z,5.82
2023-02-28T13:12:53.805Z,6.18
2023-02-28T13:15:10.879Z,6.10
2023-02-28T13:17:27.874Z,6.65
2023-02-28T13:19:44.941Z,6.07
2023-02-28T13:22:01.983Z,6.03
2023-02-28T13:24:18.960Z,5.93
2023-02-28T13:26:36.196Z,5.88
2023-02-28T13:28:54.401Z,5.88
2023-02-28T13:31:11.638Z,6.57
2023-02-28T13:33:29.952Z,6.57
2023-02-28T13:35:47.011Z,6.28
2023-02-28T13:38:04.061Z,6.03
2023-02-28T13:40:21.337Z,6.05
2023-02-28T13:42:38.507Z,6.22
2023-02-28T13:44:56.009Z,6.40
2023-02-28T13:47:13.041Z,6.30
2023-02-28T13:49:30.140Z,6.03
2023-02-28T13:51:47.348Z,6.15
2023-02-28T13:54:06.004Z,6.13
2023-02-28T13:56:22.979Z,6.32
2023-02-28T13:58:40.283Z,5.75
2023-02-28T14:00:57.361Z,6.97
2023-02-28T14:03:15.572Z,6.55
2023-02-28T14:05:32.865Z,6.22
2023-02-28T14:07:49.996Z,6.55
2023-02-28T14:10:08.145Z,6.82
2023-02-28T14:12:26.913Z,6.78
2023-02-28T14:14:43.954Z,6.40
2023-02-28T14:17:01.034Z,6.68
2023-02-28T14:19:18.009Z,6.60
2023-02-28T14:21:35.063Z,6.50
2023-02-28T14:23:53.110Z,6.45
2023-02-28T14:26:10.175Z,5.82
2023-02-28T14:28:28.256Z,6.72
2023-02-28T14:30:45.285Z,6.88
2023-02-28T14:33:02.233Z,6.38
2023-02-28T14:35:19.524Z,6.72
2023-02-28T14:37:36.876Z,6.80
2023-02-28T14:39:54.077Z,6.15
2023-02-28T14:42:11.112Z,6.82
2023-02-28T14:44:28.077Z,6.70
2023-02-28T14:46:44.976Z,6.90
2023-02-28T14:49:02.023Z,6.50
2023-02-28T14:51:19.097Z,6.70
2023-02-28T14:53:36.002Z,7.25
2023-02-28T14:55:53.012Z,6.97
2023-02-28T14:58:11.046Z,6.97
2023-02-28T15:00:28.083Z,6.85
2023-02-28T15:02:45.779Z,7.47
2023-02-28T15:05:02.843Z,7.22
2023-02-28T15:07:21.403Z,6.95
2023-02-28T15:09:38.394Z,6.85
2023-02-28T15:11:55.715Z,7.18
2023-02-28T15:14:12.979Z,7.22
2023-02-28T15:16:30.200Z,6.57
2023-02-28T15:18:47.620Z,7.38
2023-02-28T15:21:05.594Z,7.10
2023-02-28T15:23:23.547Z,6.88
2023-02-28T15:25:40.551Z,6.70
2023-02-28T15:27:58.879Z,6.72
2023-02-28T15:30:15.861Z,7.05
2023-02-28T15:32:33.298Z,7.10
2023-02-28T15:34:50.611Z,7.10
2023-02-28T15:37:07.816Z,6.57
2023-02-28T15:39:24.893Z,6.90
2023-02-28T15:41:41.926Z,7.15
2023-02-28T15:43:59.126Z,7.07
2023-02-28T15:46:17.188Z,7.63
2023-02-28T15:48:34.127Z,6.68
2023-02-28T15:50:51.150Z,7.30
2023-02-28T15:53:08.185Z,6.70
2023-02-28T15:55:25.208Z,7.30
2023-02-28T15:57:42.723Z,7.10
2023-02-28T15:59:59.713Z,6.93
2023-02-28T16:02:17.137Z,7.30
2023-02-28T16:04:34.332Z,6.95
2023-02-28T16:06:51.367Z,7.25
2023-02-28T16:09:08.639Z,7.03
2023-02-28T16:11:26.611Z,7.30
2023-02-28T16:13:43.636Z,6.78
2023-02-28T16:16:00.600Z,7.00
2023-02-28T16:18:17.457Z,7.50
2023-02-28T16:20:34.376Z,7.60
2023-02-28T16:22:51.410Z,7.30
2023-02-28T16:25:08.364Z,7.15
2023-02-28T16:27:25.415Z,7.05
2023-02-28T16:29:42.508Z,7.35
2023-02-28T16:31:59.781Z,7.18
2023-02-28T16:34:18.097Z,7.28
2023-02-28T16:36:35.166Z,7.72
2023-02-28T16:38:52.182Z,6.93
2023-02-28T16:41:09.216Z,7.43
2023-02-28T16:43:26.197Z,7.38
2023-02-28T16:45:43.468Z,7.15
2023-02-28T16:48:00.753Z,7.20
2023-02-28T16:50:17.800Z,7.80
2023-02-28T16:52:34.776Z,6.97
2023-02-28T16:54:51.847Z,6.68
2023-02-28T16:57:08.873Z,6.97
2023-02-28T16:59:25.940Z,7.55
2023-02-28T17:01:43.098Z,7.50
2023-02-28T17:04:00.359Z,7.22
2023-02-28T17:06:17.436Z,8.05
2023-02-28T17:08:34.476Z,7.20
2023-02-28T17:10:52.808Z,6.95
2023-02-28T17:13:15.091Z,7.47
2023-02-28T17:15:32.753Z,6.63
2023-02-28T17:17:49.860Z,7.20
2023-02-28T17:20:06.885Z,7.85
2023-02-28T17:22:24.092Z,7.15
2023-02-28T17:24:41.358Z,7.10
2023-02-28T17:26:58.424Z,7.07
2023-02-28T17:29:15.479Z,6.40
2023-02-28T17:31:32.411Z,6.50
2023-02-28T17:33:50.394Z,7.07
2023-02-28T17:36:07.366Z,6.70
2023-02-28T17:38:24.666Z,6.50
2023-02-28T17:40:41.723Z,6.20
2023-02-28T17:42:59.980Z,6.28
2023-02-28T17:45:17.361Z,6.72
2023-02-28T17:47:34.626Z,7.15
2023-02-28T17:49:51.865Z,7.32
2023-02-28T17:52:08.827Z,8.55
2023-02-28T17:54:27.142Z,9.63
2023-02-28T17:56:44.255Z,9.00
2023-02-28T17:59:01.502Z,10.10
2023-02-28T18:01:18.555Z,9.85
2023-02-28T18:03:35.578Z,9.35
2023-02-28T18:05:53.514Z,9.75
2023-02-28T18:08:10.591Z,9.43
2023-02-28T18:10:27.661Z,9.32
2023-02-28T18:12:45.389Z,9.75
2023-02-28T18:15:03.656Z,9.60
2023-02-28T18:17:20.719Z,8.18
2023-02-28T18:19:37.713Z,8.27
2023-02-28T18:21:55.025Z,8.30
2023-02-28T18:24:12.043Z,8.10
2023-02-28T18:26:29.399Z,8.13
2023-02-28T18:28:47.903Z,7.50
2023-02-28T18:31:04.858Z,7.97
2023-02-28T18:33:23.182Z,8.20
2023-02-28T18:35:40.274Z,7.40
2023-02-28T18:37:57.472Z,8.43
2023-02-28T18:40:14.763Z,8.30
2023-02-28T18:42:32.087Z,8.23
2023-02-28T18:44:50.085Z,8.40
2023-02-28T18:47:08.473Z,8.77
2023-02-28T18:49:25.700Z,7.97
2023-02-28T18:51:42.657Z,7.78
2023-02-28T18:53:59.609Z,8.13
2023-02-28T18:56:16.503Z,8.15
2023-02-28T18:58:33.537Z,8.25
2023-02-28T19:00:50.671Z,7.65
2023-02-28T19:03:07.595Z,7.43
2023-02-28T19:05:24.959Z,7.65
2023-02-28T19:07:42.996Z,7.70
2023-02-28T19:10:01.028Z,7.90
2023-02-28T19:12:18.081Z,7.55
2023-02-28T19:14:37.455Z,7.80
2023-02-28T19:16:54.491Z,7.43
2023-02-28T19:19:11.889Z,6.82
2023-02-28T19:21:28.935Z,6.78
2023-02-28T19:23:45.895Z,7.45
2023-02-28T19:26:02.976Z,7.43
2023-02-28T19:28:20.982Z,8.15
2023-02-28T19:30:38.020Z,8.65
2023-02-28T19:32:55.986Z,8.02
2023-02-28T19:35:13.060Z,7.75
2023-02-28T19:37:30.008Z,7.38
2023-02-28T19:39:47.098Z,7.57
2023-02-28T19:42:04.013Z,7.65
2023-02-28T19:44:22.798Z,8.93
2023-02-28T19:46:40.883Z,7.88
2023-02-28T19:48:57.926Z,8.25
2023-02-28T19:51:15.307Z,8.18
2023-02-28T19:53:32.336Z,8.68
2023-02-28T19:55:49.713Z,8.73
2023-02-28T19:58:06.694Z,8.82
2023-02-28T20:00:23.847Z,8.57
2023-02-28T20:02:42.069Z,9.05
2023-02-28T20:05:01.071Z,9.13
2023-02-28T20:07:18.490Z,9.18
2023-02-28T20:09:35.817Z,9.65
2023-02-28T20:11:52.908Z,9.82
2023-02-28T20:14:09.914Z,9.13
2023-02-28T20:16:27.232Z,9.13
2023-02-28T20:18:45.331Z,9.52
2023-02-28T20:21:02.580Z,8.88
2023-02-28T20:23:19.598Z,9.23
2023-02-28T20:25:37.514Z,9.52
2023-02-28T20:27:55.558Z,9.20
2023-02-28T20:30:12.564Z,9.48
2023-02-28T20:32:29.678Z,9.25
2023-02-28T20:34:46.694Z,8.90
2023-02-28T20:37:03.669Z,8.68
2023-02-28T20:39:21.923Z,9.07
2023-02-28T20:41:39.193Z,8.68
2023-02-28T20:43:57.261Z,9.10
2023-02-28T20:46:14.318Z,8.30
2023-02-28T20:48:31.581Z,8.30
2023-02-28T20:50:48.495Z,8.38
2023-02-28T20:53:06.548Z,8.73
2023-02-28T20:55:24.840Z,8.25
2023-02-28T20:57:41.869Z,8.45
2023-02-28T20:59:59.125Z,8.02
2023-02-28T21:02:16.476Z,7.78
2023-02-28T21:04:33.777Z,8.60
2023-02-28T21:06:50.837Z,7.45
2023-02-28T21:09:07.777Z,8.52
2023-02-28T21:11:24.872Z,8.95
2023-02-28T21:13:42.210Z,10.00
2023-02-28T21:16:00.291Z,9.63
2023-02-28T21:18:17.293Z,8.55
2023-02-28T21:20:34.311Z,8.98
2023-02-28T21:22:51.580Z,7.55
2023-02-28T21:25:09.934Z,8.85
2023-02-28T21:27:27.242Z,8.60
2023-02-28T21:29:44.251Z,7.88
2023-02-28T21:32:01.344Z,8.20
2023-02-28T21:34:18.529Z,7.68
2023-02-28T21:36:35.653Z,8.27
2023-02-28T21:38:54.044Z,8.48
2023-02-28T21:41:11.487Z,8.85
2023-02-28T21:43:28.568Z,9.05
2023-02-28T21:45:45.964Z,8.68
2023-02-28T21:48:03.072Z,8.75
2023-02-28T21:50:20.144Z,7.72
2023-02-28T21:52:37.099Z,8.10
2023-02-28T21:54:54.373Z,7.60
2023-02-28T21:57:13.744Z,7.22
2023-02-28T21:59:32.471Z,7.63
2023-02-28T22:01:49.569Z,7.82
2023-02-28T22:04:07.656Z,7.63
2023-02-28T22:06:24.933Z,8.13
2023-02-28T22:08:42.225Z,8.20
2023-02-28T22:11:00.244Z,7.78
2023-02-28T22:13:17.118Z,7.53
2023-02-28T22:15:35.204Z,8.35
2023-02-28T22:17:52.485Z,8.45
2023-02-28T22:20:09.624Z,8.15
2023-02-28T22:22:27.300Z,8.75
2023-02-28T22:24:44.534Z,9.10
2023-02-28T22:27:01.823Z,8.73
2023-02-28T22:29:18.873Z,8.02
2023-02-28T22:31:36.268Z,7.57
2023-02-28T22:33:53.537Z,7.72
2023-02-28T22:36:10.861Z,7.63
2023-02-28T22:38:28.494Z,7.80
2023-02-28T22:40:46.559Z,7.72
2023-02-28T22:43:04.893Z,8.05
2023-02-28T22:45:22.033Z,7.35
2023-02-28T22:47:39.040Z,7.78
2023-02-28T22:49:56.420Z,7.45
2023-02-28T22:52:13.722Z,7.78
2023-02-28T22:54:30.730Z,7.35
2023-02-28T22:56:47.825Z,7.32
2023-02-28T22:59:04.971Z,7.00
2023-02-28T23:01:22.418Z,6.80
2023-02-28T23:03:39.502Z,7.10
2023-02-28T23:05:56.507Z,7.35
2023-02-28T23:08:13.602Z,6.63
2023-02-28T23:10:30.938Z,6.65
2023-02-28T23:12:48.202Z,7.10
2023-02-28T23:15:06.448Z,7.53
2023-02-28T23:17:23.571Z,7.57
2023-02-28T23:19:40.942Z,6.63
2023-02-28T23:21:59.229Z,6.97
2023-02-28T23:24:16.238Z,6.93
2023-02-28T23:26:34.560Z,6.75
2023-02-28T23:28:51.881Z,6.57
2023-02-28T23:31:09.001Z,6.20
2023-02-28T23:33:26.018Z,6.68
2023-02-28T23:35:42.954Z,6.05
2023-02-28T23:38:00.109Z,6.57
2023-02-28T23:40:17.198Z,7.00
2023-02-28T23:42:34.731Z,6.88
2023-02-28T23:44:51.826Z,7.40
2023-02-28T23:47:08.893Z,7.05
2023-02-28T23:49:25.813Z,7.60
2023-02-28T23:51:43.569Z,7.03
2023-02-28T23:54:00.974Z,7.00
2023-02-28T23:56:18.310Z,7.43
2023-02-28T23:58:35.713Z,7.07
